createdAt,value
2018-06-24T00:00:08.539Z,3.07
2018-06-24T00:02:42.493Z,3.20
2018-06-24T00:05:15.101Z,4.20
2018-06-24T00:07:48.867Z,3.10
2018-06-24T00:10:23.262Z,3.30
2018-06-24T00:12:57.262Z,3.00
2018-06-24T00:15:31.707Z,3.60
2018-06-24T00:18:05.774Z,3.20
2018-06-24T00:20:41.037Z,3.13
2018-06-24T00:23:15.078Z,2.83
2018-06-24T00:25:49.220Z,3.67
2018-06-24T00:28:24.520Z,2.70
2018-06-24T00:30:58.637Z,2.67
2018-06-24T00:33:32.672Z,3.47
2018-06-24T00:36:04.816Z,3.10
2018-06-24T00:38:38.960Z,3.20
2018-06-24T00:41:14.964Z,4.22
2018-06-24T00:43:51.661Z,3.67
2018-06-24T00:46:25.594Z,2.87
2018-06-24T00:48:58.252Z,3.20
2018-06-24T00:51:32.130Z,3.10
2018-06-24T00:54:06.285Z,2.90
2018-06-24T00:56:40.199Z,3.23
2018-06-24T00:59:22.179Z,3.10
2018-06-24T01:01:56.296Z,2.87
2018-06-24T01:04:30.132Z,2.53
2018-06-24T01:07:04.127Z,3.23
2018-06-24T01:09:40.018Z,2.80
2018-06-24T01:12:14.075Z,2.60
2018-06-24T01:14:47.904Z,3.13
2018-06-24T01:17:20.296Z,3.50
2018-06-24T01:19:55.946Z,2.97
2018-06-24T01:22:30.111Z,2.83
2018-06-24T01:25:04.322Z,2.92
2018-06-24T01:27:37.997Z,3.00
2018-06-24T01:30:11.612Z,3.23
2018-06-24T01:32:45.901Z,2.65
2018-06-24T01:35:18.176Z,3.23
2018-06-24T01:37:52.783Z,2.67
2018-06-24T01:40:26.162Z,2.63
2018-06-24T01:43:00.020Z,3.20
2018-06-24T01:45:34.928Z,3.33
2018-06-24T01:48:08.742Z,3.20
2018-06-24T01:50:42.593Z,3.57
2018-06-24T01:53:16.474Z,3.30
2018-06-24T01:55:50.546Z,3.23
2018-06-24T01:58:24.600Z,2.80
2018-06-24T02:00:58.991Z,2.63
2018-06-24T02:03:31.198Z,2.90
2018-06-24T02:06:05.263Z,3.40
2018-06-24T02:08:39.275Z,3.13
2018-06-24T02:11:11.746Z,2.40
2018-06-24T02:13:46.318Z,3.20
2018-06-24T02:16:19.894Z,2.70
2018-06-24T02:18:54.245Z,3.00
2018-06-24T02:21:29.565Z,2.57
2018-06-24T02:24:03.364Z,2.70
2018-06-24T02:26:37.806Z,2.77
2018-06-24T02:29:12.125Z,2.70
2018-06-24T02:31:46.062Z,2.83
2018-06-24T02:34:19.900Z,2.70
2018-06-24T02:36:52.679Z,2.70
2018-06-24T02:39:27.591Z,2.87
2018-06-24T02:42:01.527Z,2.90
2018-06-24T02:44:33.699Z,2.77
2018-06-24T02:47:09.609Z,2.70
2018-06-24T02:49:43.628Z,2.40
2018-06-24T02:52:18.021Z,2.77
2018-06-24T02:54:51.847Z,2.80
2018-06-24T02:57:25.961Z,2.90
2018-06-24T03:00:00.169Z,2.30
2018-06-24T03:02:34.295Z,2.50
2018-06-24T03:05:08.524Z,2.80
2018-06-24T03:07:43.025Z,2.50
2018-06-24T03:10:16.927Z,2.87
2018-06-24T03:12:50.872Z,2.47
2018-06-24T03:15:24.669Z,2.63
2018-06-24T03:17:58.719Z,3.23
2018-06-24T03:20:33.033Z,2.30
2018-06-24T03:23:07.199Z,2.90
2018-06-24T03:25:41.008Z,2.17
2018-06-24T03:28:14.674Z,2.60
2018-06-24T03:30:48.867Z,2.63
2018-06-24T03:33:22.885Z,2.90
2018-06-24T03:35:56.919Z,2.40
2018-06-24T03:38:30.697Z,2.80
2018-06-24T03:41:04.741Z,2.55
2018-06-24T03:43:38.764Z,2.40
2018-06-24T03:46:12.531Z,3.07
2018-06-24T03:48:47.206Z,3.22
2018-06-24T03:51:21.291Z,3.07
2018-06-24T03:53:56.403Z,2.70
2018-06-24T03:56:30.946Z,2.57
2018-06-24T03:59:04.960Z,2.93
2018-06-24T04:01:37.756Z,2.87
2018-06-24T04:04:10.211Z,2.80
2018-06-24T04:06:43.909Z,2.65
2018-06-24T04:09:18.385Z,2.95
2018-06-24T04:11:52.461Z,1.95
2018-06-24T04:14:26.672Z,2.90
2018-06-24T04:17:00.744Z,2.43
2018-06-24T04:19:34.606Z,2.90
2018-06-24T04:22:08.697Z,2.90
2018-06-24T04:24:42.670Z,2.90
2018-06-24T04:27:16.590Z,2.60
2018-06-24T04:29:50.555Z,2.70
2018-06-24T04:32:24.809Z,2.85
2018-06-24T04:34:58.878Z,2.70
2018-06-24T04:37:32.629Z,2.77
2018-06-24T04:40:06.565Z,2.40
2018-06-24T04:42:40.735Z,2.77
2018-06-24T04:45:14.570Z,3.13
2018-06-24T04:47:48.645Z,2.70
2018-06-24T04:50:24.968Z,3.10
2018-06-24T04:52:59.023Z,2.60
2018-06-24T04:55:33.073Z,2.92
2018-06-24T04:58:06.996Z,2.50
2018-06-24T05:00:40.786Z,2.65
2018-06-24T05:03:14.826Z,2.50
2018-06-24T05:51:20.434Z,2.35
2018-06-24T05:53:56.267Z,2.70
2018-06-24T05:56:30.460Z,2.58
2018-06-24T05:59:04.057Z,3.13
2018-06-24T06:01:38.510Z,3.07
2018-06-24T06:04:12.730Z,2.72
2018-06-24T06:06:46.616Z,2.55
2018-06-24T06:09:22.004Z,2.85
2018-06-24T06:11:56.226Z,2.98
2018-06-24T06:14:30.829Z,2.87
2018-06-24T06:17:05.078Z,3.20
2018-06-24T06:19:39.116Z,2.72
2018-06-24T06:24:52.401Z,3.08
2018-06-24T06:27:26.297Z,2.45
2018-06-24T06:29:58.769Z,2.80
2018-06-24T06:32:31.236Z,3.30
2018-06-24T06:35:04.903Z,2.50
2018-06-24T06:37:39.144Z,2.50
2018-06-24T06:40:13.198Z,2.52
2018-06-24T06:42:45.565Z,2.90
2018-06-24T06:45:17.996Z,2.70
2018-06-24T06:47:52.683Z,2.70
2018-06-24T06:50:26.924Z,2.90
2018-06-24T06:53:00.757Z,2.80
2018-06-24T06:55:36.315Z,2.95
2018-06-24T06:58:08.787Z,2.55
2018-06-24T07:00:42.818Z,3.62
2018-06-24T07:03:16.876Z,3.55
2018-06-24T07:05:50.829Z,2.62
2018-06-24T07:08:24.935Z,2.73
2018-06-24T07:10:57.229Z,3.10
2018-06-24T07:13:31.166Z,2.50
2018-06-24T07:16:05.241Z,2.77
2018-06-24T07:18:37.472Z,2.22
2018-06-24T07:21:11.888Z,2.52
2018-06-24T07:23:46.037Z,2.77
2018-06-24T07:26:21.251Z,2.55
2018-06-24T07:28:55.466Z,2.40
2018-06-24T07:31:29.595Z,2.70
2018-06-24T07:34:03.523Z,3.23
2018-06-24T07:36:37.867Z,2.77
2018-06-24T07:39:13.612Z,3.12
2018-06-24T07:41:48.415Z,2.10
2018-06-24T07:44:23.159Z,3.00
2018-06-24T07:46:57.466Z,3.22
2018-06-24T07:49:31.605Z,2.40
2018-06-24T07:52:05.908Z,2.90
2018-06-24T07:54:39.945Z,2.80
2018-06-24T07:57:16.423Z,2.33
2018-06-24T07:59:50.508Z,2.73
2018-06-24T08:02:24.365Z,2.90
2018-06-24T08:04:58.505Z,3.00
2018-06-24T08:07:32.370Z,2.58
2018-06-24T08:10:06.569Z,2.80
2018-06-24T08:12:40.767Z,2.72
2018-06-24T08:15:14.973Z,2.70
2018-06-24T08:17:47.473Z,3.00
2018-06-24T08:20:21.474Z,2.80
2018-06-24T08:22:55.473Z,3.40
2018-06-24T08:25:29.456Z,3.10
2018-06-24T08:28:03.670Z,2.62
2018-06-24T08:30:37.337Z,2.87
2018-06-24T08:33:11.626Z,3.00
2018-06-24T08:35:43.877Z,2.83
2018-06-24T08:38:17.629Z,3.30
2018-06-24T08:40:51.855Z,2.83
2018-06-24T08:43:25.783Z,2.55
2018-06-24T08:45:59.872Z,2.98
2018-06-24T08:48:34.357Z,3.33
2018-06-24T08:51:08.581Z,2.60
2018-06-24T08:53:42.318Z,3.08
2018-06-24T08:56:16.202Z,3.30
2018-06-24T08:58:52.054Z,3.12
2018-06-24T09:01:24.569Z,2.83
2018-06-24T09:03:58.722Z,3.83
2018-06-24T09:06:32.209Z,4.13
2018-06-24T09:09:07.312Z,3.20
2018-06-24T09:11:41.565Z,3.20
2018-06-24T09:14:15.741Z,2.65
2018-06-24T09:16:49.677Z,3.30
2018-06-24T09:19:23.882Z,3.10
2018-06-24T09:21:58.288Z,2.95
2018-06-24T09:24:32.447Z,3.80
2018-06-24T09:27:06.391Z,2.90
2018-06-24T09:29:40.700Z,3.23
2018-06-24T09:32:14.354Z,2.42
2018-06-24T09:34:48.721Z,3.28
2018-06-24T09:37:22.575Z,3.10
2018-06-24T09:39:56.733Z,2.87
2018-06-24T09:42:30.391Z,3.30
2018-06-24T09:45:04.706Z,3.92
2018-06-24T09:47:39.054Z,2.65
2018-06-24T09:50:13.106Z,3.33
2018-06-24T09:52:48.933Z,3.60
2018-06-24T09:55:23.229Z,3.20
2018-06-24T09:57:57.660Z,3.77
2018-06-24T10:00:31.619Z,3.27
2018-06-24T10:03:05.651Z,2.90
2018-06-24T10:05:39.695Z,3.47
2018-06-24T10:08:13.826Z,3.37
2018-06-24T10:10:47.822Z,3.10
2018-06-24T10:13:21.516Z,3.33
2018-06-24T10:15:55.700Z,3.10
2018-06-24T10:18:30.028Z,3.12
2018-06-24T10:21:04.459Z,3.60
2018-06-24T10:23:38.444Z,3.72
2018-06-24T10:26:11.068Z,2.92
2018-06-24T10:28:45.680Z,2.73
2018-06-24T10:31:19.424Z,2.87
2018-06-24T10:33:53.578Z,3.60
2018-06-24T10:36:27.458Z,3.13
2018-06-24T10:39:01.447Z,3.77
2018-06-24T10:41:35.365Z,2.93
2018-06-24T10:44:07.894Z,3.30
2018-06-24T10:46:42.057Z,3.20
2018-06-24T10:49:15.852Z,3.93
2018-06-24T10:51:50.619Z,3.70
2018-06-24T10:54:25.226Z,3.47
2018-06-24T10:56:59.387Z,3.57
2018-06-24T10:59:34.390Z,3.40
2018-06-24T11:02:09.374Z,2.63
2018-06-24T11:04:43.218Z,3.10
2018-06-24T11:07:17.023Z,3.00
2018-06-24T11:09:51.918Z,3.43
2018-06-24T11:12:25.987Z,3.53
2018-06-24T11:15:00.181Z,3.33
2018-06-24T11:17:34.043Z,3.40
2018-06-24T11:20:08.026Z,3.17
2018-06-24T11:22:42.298Z,3.47
2018-06-24T11:25:16.365Z,3.35
2018-06-24T11:27:50.137Z,3.00
2018-06-24T11:30:23.936Z,3.50
2018-06-24T11:32:58.638Z,3.10
2018-06-24T11:35:32.570Z,2.97
2018-06-24T11:38:06.945Z,3.07
2018-06-24T11:40:39.139Z,4.33
2018-06-24T11:43:13.313Z,7.43
2018-06-24T11:45:47.199Z,10.20
2018-06-24T11:48:21.383Z,8.35
2018-06-24T11:50:55.696Z,8.13
2018-06-24T11:53:29.648Z,5.83
2018-06-24T11:56:03.772Z,4.90
2018-06-24T11:58:38.288Z,4.23
2018-06-24T12:01:12.240Z,4.67
2018-06-24T12:03:48.456Z,4.40
2018-06-24T12:06:22.382Z,4.63
2018-06-24T12:08:56.548Z,4.57
2018-06-24T12:11:31.169Z,5.27
2018-06-24T12:14:05.273Z,6.03
2018-06-24T12:16:39.465Z,4.90
2018-06-24T12:19:43.803Z,4.17
2018-06-24T12:22:18.008Z,3.63
2018-06-24T12:24:51.776Z,4.10
2018-06-24T12:27:26.094Z,3.50
2018-06-24T12:30:00.164Z,3.77
2018-06-24T12:32:34.162Z,3.63
2018-06-24T12:35:08.130Z,4.50
2018-06-24T12:37:43.275Z,3.97
2018-06-24T12:40:17.739Z,3.20
2018-06-24T12:42:52.851Z,3.30
2018-06-24T12:45:26.644Z,3.50
2018-06-24T12:48:00.680Z,4.17
2018-06-24T12:50:35.027Z,3.70
2018-06-24T12:53:09.024Z,4.30
2018-06-24T12:55:43.711Z,4.00
2018-06-24T12:58:16.161Z,4.10
2018-06-24T13:00:50.468Z,4.63
2018-06-24T13:03:24.268Z,5.37
2018-06-24T13:06:00.356Z,4.83
2018-06-24T13:08:34.535Z,5.33
2018-06-24T13:11:08.489Z,5.80
2018-06-24T13:13:42.809Z,5.40
2018-06-24T13:16:17.783Z,5.78
2018-06-24T13:18:52.554Z,6.13
2018-06-24T13:21:26.426Z,6.33
2018-06-24T13:24:00.391Z,6.67
2018-06-24T13:26:34.486Z,8.63
2018-06-24T13:29:10.397Z,8.23
2018-06-24T13:31:44.503Z,9.93
2018-06-24T13:34:19.069Z,9.30
2018-06-24T13:36:53.532Z,8.43
2018-06-24T14:02:06.416Z,8.73
2018-06-24T14:04:40.475Z,8.20
2018-06-24T14:07:16.448Z,9.03
2018-06-24T14:09:50.644Z,7.90
2018-06-24T14:12:25.521Z,4.23
2018-06-24T14:14:59.770Z,3.00
2018-06-24T14:17:34.159Z,2.10
2018-06-24T14:20:07.993Z,1.13
2018-06-24T14:22:40.973Z,0.88
2018-06-24T14:25:13.165Z,1.10
2018-06-24T14:27:46.988Z,1.00
2018-06-24T14:30:21.038Z,0.60
2018-06-24T14:32:55.794Z,0.93
2018-06-24T14:35:29.820Z,0.70
2018-06-24T14:38:02.108Z,1.30
2018-06-24T14:40:36.042Z,1.10
2018-06-24T14:43:10.489Z,1.73
2018-06-24T14:45:44.602Z,1.17
2018-06-24T14:48:18.616Z,0.90
2018-06-24T14:50:51.220Z,0.75
2018-06-24T14:53:25.333Z,0.80
2018-06-24T14:55:57.698Z,1.00
2018-06-24T14:58:31.600Z,0.80
2018-06-24T15:01:05.845Z,0.82
2018-06-24T15:03:40.464Z,0.67
2018-06-24T15:06:14.826Z,1.00
2018-06-24T15:08:49.993Z,0.85
2018-06-24T15:11:24.547Z,0.90
2018-06-24T15:13:59.085Z,0.90
2018-06-24T15:16:33.198Z,1.00
2018-06-24T15:19:07.523Z,1.30
2018-06-24T15:21:42.222Z,0.90
2018-06-24T15:24:16.186Z,0.90
2018-06-24T15:26:50.445Z,0.85
2018-06-24T15:29:24.704Z,1.12
2018-06-24T15:31:58.876Z,0.60
2018-06-24T15:34:34.208Z,0.78
2018-06-24T15:37:08.059Z,0.70
2018-06-24T15:39:42.762Z,0.63
2018-06-24T15:42:17.266Z,0.60
2018-06-24T15:44:52.503Z,0.97
2018-06-24T15:47:26.340Z,0.90
2018-06-24T15:50:00.806Z,1.10
2018-06-24T15:52:35.015Z,0.40
2018-06-24T15:55:09.328Z,0.60
2018-06-24T15:57:43.065Z,0.83
2018-06-24T16:00:17.006Z,0.50
2018-06-24T16:02:51.157Z,0.35
2018-06-24T16:28:47.357Z,0.60
2018-06-24T16:31:21.452Z,1.32
2018-06-24T16:33:56.002Z,0.80
2018-06-24T16:36:30.284Z,0.87
2018-06-24T16:39:04.325Z,0.50
2018-06-24T16:41:39.497Z,0.70
2018-06-24T16:44:13.995Z,0.60
2018-06-24T16:46:47.993Z,0.60
2018-06-24T16:49:23.133Z,0.70
2018-06-24T16:51:57.238Z,0.73
2018-06-24T16:54:31.733Z,0.80
2018-06-24T16:57:05.698Z,0.53
2018-06-24T16:59:40.815Z,0.60
2018-06-24T17:02:15.282Z,0.70
2018-06-24T17:04:48.063Z,0.60
2018-06-24T17:07:21.405Z,0.60
2018-06-24T17:09:56.461Z,0.53
2018-06-24T17:12:32.692Z,0.73
2018-06-24T17:15:07.507Z,0.90
2018-06-24T17:17:43.011Z,0.53
2018-06-24T17:20:17.799Z,0.60
2018-06-24T17:22:56.346Z,0.67
2018-06-24T17:25:30.722Z,0.70
2018-06-24T17:28:05.131Z,0.85
2018-06-24T17:30:40.595Z,1.10
2018-06-24T17:33:14.781Z,1.30
2018-06-24T17:35:49.277Z,1.00
2018-06-24T17:38:23.588Z,1.30
2018-06-24T17:40:57.742Z,1.30
2018-06-24T17:43:31.518Z,1.00
2018-06-24T17:46:05.337Z,1.13
2018-06-24T17:48:39.509Z,1.33
2018-06-24T17:51:13.647Z,1.30
2018-06-24T17:53:49.229Z,1.20
2018-06-24T17:56:23.484Z,1.20
2018-06-24T17:58:57.203Z,1.27
2018-06-24T18:01:29.991Z,1.13
2018-06-24T18:04:04.088Z,0.90
2018-06-24T18:06:38.415Z,0.83
2018-06-24T18:09:14.288Z,0.70
2018-06-24T18:11:48.537Z,0.78
2018-06-24T18:14:22.370Z,0.60
2018-06-24T18:16:56.256Z,0.40
2018-06-24T18:19:30.257Z,0.50
2018-06-24T18:22:04.277Z,0.37
2018-06-24T18:24:39.545Z,0.50
2018-06-24T18:27:13.535Z,0.70
2018-06-24T18:29:47.540Z,0.50
2018-06-24T18:32:23.054Z,0.70
2018-06-24T18:34:57.015Z,0.40
2018-06-24T18:37:31.457Z,0.53
2018-06-24T18:40:05.898Z,0.50
2018-06-24T18:42:39.766Z,0.40
2018-06-24T18:45:13.647Z,0.40
2018-06-24T18:47:48.591Z,0.55
2018-06-24T18:50:22.725Z,0.63
2018-06-24T18:52:56.935Z,0.83
2018-06-24T18:55:31.410Z,0.50
2018-06-24T18:58:03.623Z,1.10
2018-06-24T19:00:37.329Z,1.00
2018-06-24T19:03:11.580Z,0.83
2018-06-24T19:05:45.623Z,0.82
2018-06-24T19:08:19.719Z,0.87
2018-06-24T19:10:53.822Z,0.90
2018-06-24T19:13:27.720Z,1.40
2018-06-24T19:16:03.799Z,0.83
2018-06-24T19:18:38.110Z,0.87
2018-06-24T19:21:11.875Z,1.00
2018-06-24T19:23:46.237Z,0.80
2018-06-24T19:26:20.271Z,0.78
2018-06-24T19:28:52.700Z,1.20
2018-06-24T19:31:26.732Z,1.00
2018-06-24T19:34:01.677Z,1.07
2018-06-24T19:36:34.414Z,1.10
2018-06-24T19:39:10.193Z,1.30
2018-06-24T19:41:44.791Z,1.40
2018-06-24T19:44:18.619Z,1.30
2018-06-24T19:46:52.842Z,1.17
2018-06-24T19:49:26.773Z,1.20
2018-06-24T19:52:00.984Z,1.40
2018-06-24T19:54:34.994Z,1.10
2018-06-24T19:57:09.411Z,1.00
2018-06-24T19:59:43.483Z,1.30
2018-06-24T20:02:17.720Z,1.27
2018-06-24T20:04:51.531Z,1.57
2018-06-24T20:07:25.425Z,1.30
2018-06-24T20:09:59.527Z,1.63
2018-06-24T20:12:33.234Z,1.20
2018-06-24T20:15:07.175Z,1.40
2018-06-24T20:17:41.038Z,1.60
2018-06-24T20:20:15.283Z,1.23
2018-06-24T20:22:50.206Z,1.40
2018-06-24T20:25:24.121Z,1.70
2018-06-24T20:27:58.356Z,2.57
2018-06-24T20:30:32.849Z,2.13
2018-06-24T20:33:06.905Z,1.70
2018-06-24T20:35:42.784Z,1.73
2018-06-24T20:38:16.798Z,1.80
2018-06-24T20:40:50.857Z,1.30
2018-06-24T20:43:25.075Z,1.30
2018-06-24T20:45:59.028Z,1.37
2018-06-24T20:48:33.246Z,1.37
2018-06-24T20:51:07.299Z,1.23
2018-06-24T20:53:41.674Z,1.57
2018-06-24T20:56:15.498Z,1.53
2018-06-24T20:58:50.019Z,1.17
2018-06-24T21:01:23.855Z,1.50
2018-06-24T21:03:57.691Z,1.50
2018-06-24T21:06:30.022Z,1.45
2018-06-24T21:09:04.137Z,1.50
2018-06-24T21:11:39.049Z,1.40
2018-06-24T21:14:13.120Z,1.60
2018-06-24T21:16:48.045Z,1.70
2018-06-24T21:19:21.850Z,1.90
2018-06-24T21:21:55.746Z,1.53
2018-06-24T21:24:36.798Z,1.33
2018-06-24T21:27:12.360Z,1.33
2018-06-24T21:29:46.832Z,1.50
2018-06-24T21:32:20.707Z,1.40
2018-06-24T21:34:55.548Z,1.30
2018-06-24T21:37:31.667Z,1.53
2018-06-24T21:40:05.812Z,1.45
2018-06-24T21:42:39.976Z,1.30
2018-06-24T21:45:13.940Z,1.50
2018-06-24T22:26:48.587Z,1.50
2018-06-24T22:29:23.149Z,1.52
2018-06-24T22:31:57.622Z,1.87
2018-06-24T22:34:31.700Z,1.77
2018-06-24T22:37:05.900Z,1.87
2018-06-24T22:39:40.570Z,2.10
2018-06-24T22:42:14.378Z,2.10
2018-06-24T22:44:48.852Z,2.30
2018-06-24T22:47:22.473Z,2.07
2018-06-24T22:49:56.296Z,2.33
2018-06-24T22:52:30.405Z,2.45
2018-06-24T22:55:04.202Z,1.93
2018-06-24T22:57:38.065Z,2.50
2018-06-24T23:00:16.330Z,3.33
2018-06-24T23:05:28.817Z,2.60
2018-06-24T23:08:02.933Z,2.40
2018-06-24T23:10:37.175Z,2.00
2018-06-24T23:13:11.059Z,2.10
2018-06-24T23:15:45.309Z,2.00
2018-06-24T23:18:19.152Z,2.17
2018-06-24T23:20:53.134Z,2.20
2018-06-24T23:23:26.866Z,2.62
2018-06-24T23:26:00.893Z,2.20
2018-06-24T23:28:35.019Z,2.30
2018-06-24T23:31:09.348Z,1.80
2018-06-24T23:33:44.004Z,2.27
2018-06-24T23:36:16.316Z,2.60
2018-06-24T23:38:50.412Z,1.97
2018-06-24T23:41:25.765Z,2.30
2018-06-24T23:43:59.786Z,2.07
2018-06-24T23:46:33.876Z,2.10
2018-06-24T23:49:07.878Z,2.23
